Time;durP1;ratioP1;P1;durP2;ratioP2;P2;SDS_P1;SDS_P2;PMS_P1;PMS_P2;Temp;Humidity;BMP_temperature;BMP_pressure;BME280_temperature;BME280_humidity;BME280_pressure;Samples;Min_cycle;Max_cycle;Signal;HPM_P1;HPM_P2
2023/05/15 00:02:17;;;;;;;11.68;6.65;;;;;;;12.30;82.06;95218.09;5032618;28;20037;-83
2023/05/15 00:04:42;;;;;;;11.68;7.40;;;;;;;12.33;82.20;95224.75;5032479;28;20029;-82
2023/05/15 00:07:08;;;;;;;9.77;6.15;;;;;;;11.77;82.35;95112.91;5031925;28;20033;-82
2023/05/15 00:09:34;;;;;;;10.65;6.18;;;;;;;12.41;82.17;95218.81;5033490;28;20025;-83
2023/05/15 00:11:59;;;;;;;6.95;5.57;;;;;;;12.20;82.22;95174.91;5032142;28;20037;-83
2023/05/15 00:14:25;;;;;;;9.07;6.18;;;;;;;12.14;82.04;95178.66;5033421;28;20116;-82
2023/05/15 00:16:50;;;;;;;8.50;5.85;;;;;;;12.33;82.33;95230.84;5033549;28;20045;-83
2023/05/15 00:19:16;;;;;;;8.55;6.10;;;;;;;12.03;82.34;95231.16;5034414;28;20040;-83
2023/05/15 00:21:41;;;;;;;7.97;5.72;;;;;;;11.81;82.19;95205.06;5034353;28;20036;-82
2023/05/15 00:24:07;;;;;;;11.07;5.43;;;;;;;11.74;82.69;95233.81;5034517;28;20041;-83
2023/05/15 00:26:32;;;;;;;10.65;5.38;;;;;;;11.49;81.67;95156.97;5034404;28;20040;-83
2023/05/15 00:28:58;;;;;;;9.18;6.72;;;;;;;11.81;81.89;95193.66;5031805;28;20137;-83
2023/05/15 00:31:23;;;;;;;8.13;5.40;;;;;;;11.83;82.17;95210.88;5032955;28;20540;-83
2023/05/15 00:33:49;;;;;;;7.45;5.15;;;;;;;11.87;82.19;95225.19;5034057;28;20188;-83
2023/05/15 00:36:16;;;;;;;16.30;6.10;;;;;;;11.69;81.88;95175.38;5033651;28;20036;-82
2023/05/15 00:38:41;;;;;;;11.50;5.82;;;;;;;10.95;81.69;95083.63;5031407;28;20056;-83
2023/05/15 00:41:09;;;;;;;12.75;5.60;;;;;;;12.15;81.57;95246.72;5032930;28;20030;-83
2023/05/15 00:43:35;;;;;;;9.18;5.70;;;;;;;12.08;81.55;95230.31;5033910;28;20041;-83
2023/05/15 00:46:02;;;;;;;8.52;5.95;;;;;;;12.18;81.40;95224.91;5032966;28;20052;-82
2023/05/15 00:48:28;;;;;;;10.93;5.93;;;;;;;11.73;81.29;95167.66;5033274;28;20487;-82
2023/05/15 00:50:56;;;;;;;7.68;5.80;;;;;;;11.39;81.45;95136.59;5033703;28;20123;-83
2023/05/15 00:53:23;;;;;;;8.15;5.60;;;;;;;11.86;81.05;95223.63;5032302;28;20269;-83
2023/05/15 00:55:49;;;;;;;9.18;6.00;;;;;;;11.73;81.40;95218.94;5031561;28;20041;-83
2023/05/15 00:58:16;;;;;;;14.65;6.93;;;;;;;11.59;81.39;95218.00;5031576;28;20068;-83
2023/05/15 01:00:47;;;;;;;11.18;6.57;;;;;;;11.47;81.98;95193.63;5037296;28;20053;-83
2023/05/15 01:03:12;;;;;;;9.88;6.60;;;;;;;11.89;82.33;95241.66;5036473;28;20029;-82
2023/05/15 01:05:38;;;;;;;9.82;7.20;;;;;;;11.72;82.07;95227.16;5037907;28;20052;-82
2023/05/15 01:08:15;;;;;;;9.13;7.05;;;;;;;11.65;82.17;95198.28;5036070;28;20388;-83
2023/05/15 01:10:42;;;;;;;10.07;6.85;;;;;;;11.68;82.09;95208.31;5035641;28;20099;-83
2023/05/15 01:13:08;;;;;;;12.93;7.03;;;;;;;11.92;81.96;95242.94;5036630;28;20037;-82
2023/05/15 01:15:34;;;;;;;12.50;7.05;;;;;;;11.93;81.91;95255.97;5034753;28;20040;-83
2023/05/15 01:18:00;;;;;;;10.45;7.53;;;;;;;11.34;81.63;95165.88;5036810;28;20132;-82
2023/05/15 01:20:26;;;;;;;11.77;7.43;;;;;;;11.77;82.19;95241.22;5038296;28;20460;-83
2023/05/15 01:23:20;;;;;;;9.35;6.63;;;;;;;11.60;82.33;95228.31;5037439;28;20033;-83
2023/05/15 01:26:23;;;;;;;10.60;6.95;;;;;;;11.72;82.59;95235.94;5037021;28;20464;-84
2023/05/15 01:29:00;;;;;;;15.15;7.35;;;;;;;11.57;82.43;95204.19;5038341;28;20057;-83
2023/05/15 01:31:30;;;;;;;14.27;7.13;;;;;;;11.67;82.65;95222.69;5039073;28;20034;-84
2023/05/15 01:34:01;;;;;;;13.63;7.20;;;;;;;11.56;82.77;95173.38;5038132;28;20037;-84
2023/05/15 01:36:37;;;;;;;13.02;7.07;;;;;;;11.17;83.06;95130.94;5038146;28;20038;-83
2023/05/15 01:39:05;;;;;;;10.52;7.93;;;;;;;11.56;82.77;95199.94;5036370;28;20037;-84
2023/05/15 01:42:00;;;;;;;16.65;8.15;;;;;;;10.27;82.77;95011.19;5037909;28;20156;-83
2023/05/15 01:44:51;;;;;;;11.27;7.47;;;;;;;11.13;82.95;95122.78;5070314;28;20103;-84
2023/05/15 01:47:23;;;;;;;9.85;6.85;;;;;;;11.72;83.21;95204.06;5036235;28;20053;-84
2023/05/15 01:49:53;;;;;;;11.18;7.53;;;;;;;11.17;82.84;95126.44;5036092;28;20102;-84
2023/05/15 01:52:26;;;;;;;12.13;7.63;;;;;;;11.51;82.60;95181.41;5038869;28;20121;-84
2023/05/15 01:54:53;;;;;;;11.82;7.20;;;;;;;11.61;82.64;95197.22;5036588;28;20137;-84
2023/05/15 01:57:20;;;;;;;10.55;7.60;;;;;;;11.68;82.39;95189.72;5036153;28;20484;-83
2023/05/15 01:59:46;;;;;;;10.95;7.78;;;;;;;11.27;82.65;95144.16;5034840;28;20021;-83
2023/05/15 02:02:14;;;;;;;11.82;7.88;;;;;;;11.39;82.49;95155.19;5036262;28;20091;-85
2023/05/15 02:04:40;;;;;;;12.55;7.40;;;;;;;11.67;82.52;95213.94;5034960;28;20419;-83
2023/05/15 02:07:06;;;;;;;11.27;8.02;;;;;;;10.80;83.01;95084.53;5034525;28;20528;-83
2023/05/15 02:09:32;;;;;;;24.85;8.98;;;;;;;11.63;82.59;95219.00;5033824;28;20098;-83
2023/05/15 02:12:00;;;;;;;13.70;8.55;;;;;;;11.57;82.62;95214.81;5034704;28;20030;-83
2023/05/15 02:14:28;;;;;;;13.02;8.50;;;;;;;11.28;82.91;95161.66;5036334;28;20025;-84
2023/05/15 02:16:53;;;;;;;19.13;9.00;;;;;;;11.16;82.50;95147.94;5034973;28;20029;-83
2023/05/15 02:19:19;;;;;;;11.40;8.00;;;;;;;11.58;82.74;95198.59;5034540;28;20048;-84
2023/05/15 02:21:44;;;;;;;12.85;8.27;;;;;;;11.56;83.01;95190.09;5034365;28;20040;-84
2023/05/15 02:24:10;;;;;;;19.42;8.63;;;;;;;11.20;82.90;95141.03;5034436;28;20046;-84
2023/05/15 02:26:46;;;;;;;12.32;8.80;;;;;;;11.47;82.62;95175.03;5033983;28;20415;-84
2023/05/15 02:29:14;;;;;;;9.73;7.47;;;;;;;11.28;82.66;95145.75;5034116;28;20041;-84
2023/05/15 02:31:55;;;;;;;24.52;10.10;;;;;;;11.30;82.15;95138.28;5034754;28;20033;-84
2023/05/15 02:34:48;;;;;;;21.65;9.25;;;;;;;11.61;82.62;95181.28;5034224;28;20037;-84
2023/05/15 02:37:18;;;;;;;18.30;9.55;;;;;;;11.20;82.67;95109.19;5024515;28;20045;-84
2023/05/15 02:39:46;;;;;;;19.85;7.80;;;;;;;11.56;82.35;95155.59;5035606;28;20033;-84
2023/05/15 02:42:13;;;;;;;20.95;9.93;;;;;;;11.10;82.60;95093.31;5034353;28;20037;-84
2023/05/15 02:44:40;;;;;;;17.27;8.32;;;;;;;11.63;82.39;95179.16;5035101;28;20344;-84
2023/05/15 02:47:07;;;;;;;14.27;8.70;;;;;;;11.58;82.46;95190.63;5037194;28;20518;-84
2023/05/15 02:49:32;;;;;;;19.65;9.73;;;;;;;11.03;82.19;95140.63;5035990;28;20495;-84
2023/05/15 02:51:58;;;;;;;12.02;8.20;;;;;;;11.30;82.91;95203.84;5036635;28;20108;-83
2023/05/15 02:54:24;;;;;;;14.48;8.48;;;;;;;11.29;82.91;95197.75;5034345;28;20072;-84
2023/05/15 02:56:50;;;;;;;15.90;8.90;;;;;;;11.28;83.07;95187.44;5033869;28;20148;-83
2023/05/15 02:59:18;;;;;;;17.10;8.75;;;;;;;10.91;83.57;95105.69;5034179;28;20037;-83
2023/05/15 03:01:45;;;;;;;20.00;9.10;;;;;;;11.32;83.62;95154.72;5035256;28;20087;-84
2023/05/15 03:04:15;;;;;;;12.77;8.82;;;;;;;11.48;83.44;95179.28;5035827;28;20061;-84
2023/05/15 03:06:41;;;;;;;14.20;9.20;;;;;;;11.42;83.12;95173.22;5033758;28;20507;-84
2023/05/15 03:09:07;;;;;;;13.98;8.80;;;;;;;11.55;83.49;95201.00;5033583;28;20056;-84
2023/05/15 03:11:32;;;;;;;23.52;10.52;;;;;;;10.95;83.75;95102.19;5033458;28;20029;-84
2023/05/15 03:13:59;;;;;;;19.45;9.88;;;;;;;11.50;83.83;95198.41;5069614;28;20029;-83
2023/05/15 03:16:25;;;;;;;15.95;9.38;;;;;;;11.37;83.69;95167.16;5034823;28;20048;-84
2023/05/15 03:18:51;;;;;;;22.48;9.52;;;;;;;11.31;83.65;95161.09;5034203;28;20044;-84
2023/05/15 03:21:16;;;;;;;18.42;10.00;;;;;;;11.59;83.39;95189.53;5033286;28;20073;-84
2023/05/15 03:23:42;;;;;;;20.38;10.13;;;;;;;11.65;83.62;95203.59;5032813;28;20029;-84
2023/05/15 03:26:07;;;;;;;21.33;10.07;;;;;;;11.60;83.38;95199.09;5033779;28;20040;-85
2023/05/15 03:28:33;;;;;;;17.63;10.18;;;;;;;11.08;83.50;95129.97;5033524;28;20045;-84
2023/05/15 03:30:58;;;;;;;14.68;10.07;;;;;;;11.46;83.54;95181.41;5033521;28;20026;-84
2023/05/15 03:33:24;;;;;;;16.38;9.05;;;;;;;11.42;83.39;95162.63;5033440;28;20037;-84
2023/05/15 03:35:51;;;;;;;15.02;9.68;;;;;;;11.68;83.90;95186.28;5034909;28;20539;-84
2023/05/15 03:38:16;;;;;;;19.85;9.82;;;;;;;11.37;83.82;95133.44;5034931;28;20491;-84
2023/05/15 03:40:41;;;;;;;21.45;9.63;;;;;;;11.63;83.29;95162.44;5035403;28;20040;-84
2023/05/15 03:43:07;;;;;;;22.23;10.90;;;;;;;11.37;83.13;95127.31;5034806;28;20026;-84
2023/05/15 03:45:34;;;;;;;21.83;11.10;;;;;;;10.98;83.79;95053.91;5034224;28;20033;-84
2023/05/15 03:48:00;;;;;;;18.52;11.73;;;;;;;11.56;83.63;95152.91;5034212;28;20039;-83
2023/05/15 03:50:25;;;;;;;18.70;11.13;;;;;;;11.30;83.78;95127.66;5033386;28;20034;-83
2023/05/15 03:52:51;;;;;;;23.52;11.20;;;;;;;11.76;83.49;95177.72;5032419;28;20041;-83
2023/05/15 03:55:17;;;;;;;20.15;12.55;;;;;;;11.77;83.49;95181.97;5034729;28;20064;-83
2023/05/15 03:57:42;;;;;;;18.23;11.98;;;;;;;11.37;83.53;95117.50;5036345;28;20069;-84
2023/05/15 04:00:11;;;;;;;18.73;13.57;;;;;;;11.76;83.97;95175.06;5037799;28;20041;-84
2023/05/15 04:02:37;;;;;;;20.70;13.45;;;;;;;11.48;83.98;95126.97;5030708;28;20037;-84
2023/05/15 04:05:04;;;;;;;21.05;12.93;;;;;;;11.83;83.49;95194.94;5016059;28;20535;-84
2023/05/15 04:07:31;;;;;;;18.35;12.63;;;;;;;11.77;83.41;95174.81;5022565;28;20026;-84
2023/05/15 04:10:00;;;;;;;20.27;13.10;;;;;;;11.87;83.94;95184.53;5030190;28;20049;-83
2023/05/15 04:12:28;;;;;;;18.83;13.45;;;;;;;11.78;84.00;95189.66;5035755;28;20119;-83
2023/05/15 04:14:55;;;;;;;22.77;14.73;;;;;;;11.83;83.71;95196.78;5040621;28;20037;-84
2023/05/15 04:17:21;;;;;;;18.55;14.00;;;;;;;11.43;84.04;95129.69;5042537;28;20145;-85
2023/05/15 04:19:46;;;;;;;20.92;13.85;;;;;;;11.87;84.32;95198.63;5038865;28;20037;-88
2023/05/15 04:22:22;;;;;;;24.10;15.68;;;;;;;10.03;83.88;94919.09;5021957;28;20048;-85
2023/05/15 04:24:48;;;;;;;20.20;14.40;;;;;;;10.49;84.11;94989.56;5045253;28;20096;-86
2023/05/15 04:27:23;;;;;;;26.50;15.70;;;;;;;10.56;84.29;95012.03;5038420;28;20067;-86
2023/05/15 04:29:51;;;;;;;21.80;13.95;;;;;;;10.99;84.05;95033.44;5022806;28;20041;-86
2023/05/15 04:32:16;;;;;;;20.40;13.93;;;;;;;10.43;83.77;94939.25;5028377;28;20370;-86
2023/05/15 04:34:42;;;;;;;20.30;14.57;;;;;;;10.02;83.89;94893.66;5036255;28;20463;-86
2023/05/15 04:37:08;;;;;;;21.75;14.82;;;;;;;12.12;83.82;95204.75;5032500;28;20033;-86
2023/05/15 04:39:33;;;;;;;22.23;15.07;;;;;;;11.92;83.63;95164.03;5042398;28;20056;-86
2023/05/15 04:41:59;;;;;;;19.67;14.48;;;;;;;10.92;83.28;94996.63;5033142;28;20155;-85
2023/05/15 04:44:27;;;;;;;23.95;15.93;;;;;;;11.39;84.05;95066.78;5026800;28;20040;-88
2023/05/15 04:46:53;;;;;;;25.83;16.67;;;;;;;10.87;84.39;94985.25;5031023;28;20029;-86
2023/05/15 04:49:18;;;;;;;28.17;17.80;;;;;;;11.04;84.12;94981.13;5037424;28;20068;-87
2023/05/15 04:51:44;;;;;;;27.80;18.35;;;;;;;12.08;84.24;95143.38;5030198;28;20036;-87
2023/05/15 04:54:09;;;;;;;27.25;17.90;;;;;;;12.32;84.18;95178.75;5026642;28;20150;-85
2023/05/15 04:56:35;;;;;;;27.60;17.35;;;;;;;11.31;84.01;95014.28;5019819;28;20052;-87
2023/05/15 04:59:01;;;;;;;25.30;17.25;;;;;;;11.85;83.96;95112.28;5029731;28;20067;-85
2023/05/15 05:01:27;;;;;;;29.25;17.67;;;;;;;11.39;83.85;95051.63;5019401;28;20025;-84
2023/05/15 05:03:52;;;;;;;25.63;15.02;;;;;;;10.98;82.96;95006.13;5022912;28;20029;-86
2023/05/15 05:06:18;;;;;;;27.13;15.30;;;;;;;11.40;83.33;95026.66;5025732;28;20026;-88
2023/05/15 05:08:43;;;;;;;24.33;14.93;;;;;;;11.55;83.44;95037.13;5026744;28;20087;-87
2023/05/15 05:11:47;;;;;;;19.25;14.20;;;;;;;10.79;83.03;94950.31;5024111;28;21565;-85
2023/05/15 05:14:14;;;;;;;21.75;14.15;;;;;;;12.45;82.85;95181.78;4974454;28;20034;-86
2023/05/15 05:16:40;;;;;;;28.25;15.18;;;;;;;12.40;83.30;95157.91;5013295;28;20049;-85
2023/05/15 05:19:05;;;;;;;24.08;14.93;;;;;;;12.52;82.84;95151.09;5014858;28;20049;-88
2023/05/15 05:21:33;;;;;;;23.90;14.80;;;;;;;12.48;83.22;95152.75;5017089;28;20044;-88
2023/05/15 05:23:58;;;;;;;24.50;16.35;;;;;;;12.53;83.25;95155.34;5048151;23;20085;-78
2023/05/15 05:26:25;;;;;;;23.02;15.77;;;;;;;12.46;83.44;95132.81;5037700;28;20499;-81
2023/05/15 05:28:50;;;;;;;26.27;15.40;;;;;;;12.28;83.84;95134.41;5042008;28;20461;-79
2023/05/15 05:31:16;;;;;;;22.63;14.98;;;;;;;12.60;83.97;95170.94;5039934;28;20041;-79
2023/05/15 05:33:41;;;;;;;29.80;17.52;;;;;;;12.48;83.93;95131.47;5038533;28;20764;-79
2023/05/15 05:36:07;;;;;;;25.17;16.65;;;;;;;12.75;84.00;95162.75;5037444;28;20048;-79
2023/05/15 05:38:33;;;;;;;25.75;15.75;;;;;;;12.82;83.54;95157.88;5038707;28;20127;-78
2023/05/15 05:41:00;;;;;;;25.63;15.80;;;;;;;12.80;83.74;95157.38;5034362;28;20098;-79
2023/05/15 05:43:26;;;;;;;24.85;17.40;;;;;;;12.59;83.34;95097.53;5037008;28;20033;-79
2023/05/15 05:45:53;;;;;;;30.00;17.15;;;;;;;12.70;83.26;95107.75;5034824;28;20582;-78
2023/05/15 05:48:18;;;;;;;28.33;17.67;;;;;;;13.09;83.56;95166.00;5036367;28;20033;-78
2023/05/15 05:50:44;;;;;;;25.50;16.40;;;;;;;12.85;83.54;95113.94;5037101;28;20094;-79
2023/05/15 05:53:09;;;;;;;27.65;16.23;;;;;;;13.11;83.44;95152.41;5037608;28;20043;-78
2023/05/15 05:55:37;;;;;;;28.05;17.15;;;;;;;13.11;82.61;95153.22;5039398;28;20091;-79
2023/05/15 05:58:03;;;;;;;32.05;17.80;;;;;;;12.77;83.54;95102.06;5034828;28;20270;-78
2023/05/15 06:00:29;;;;;;;25.60;17.77;;;;;;;12.96;83.31;95115.38;5035801;28;20039;-79
2023/05/15 06:02:58;;;;;;;27.83;16.48;;;;;;;13.34;83.11;95150.75;5032546;28;20047;-77
2023/05/15 06:05:27;;;;;;;31.42;17.80;;;;;;;13.34;82.97;95140.91;5033665;28;20075;-77
2023/05/15 06:07:54;;;;;;;33.28;18.08;;;;;;;13.42;81.88;95156.22;5060943;28;20096;-77
2023/05/15 06:10:20;;;;;;;34.92;20.42;;;;;;;13.44;82.48;95142.59;5024946;28;20463;-78
2023/05/15 06:12:46;;;;;;;31.58;18.92;;;;;;;13.56;81.94;95153.59;5023825;28;20173;-78
2023/05/15 06:15:12;;;;;;;34.70;19.10;;;;;;;13.40;82.34;95129.06;5030597;28;20041;-77
2023/05/15 06:17:38;;;;;;;29.52;18.13;;;;;;;13.54;82.06;95123.78;5034927;28;20039;-79
2023/05/15 06:20:11;;;;;;;37.85;18.90;;;;;;;13.50;81.15;95099.56;5032360;28;20094;-79
2023/05/15 06:22:37;;;;;;;32.70;20.40;;;;;;;13.60;80.80;95095.16;5036478;28;20100;-79
2023/05/15 06:25:04;;;;;;;30.55;19.35;;;;;;;13.97;80.16;95142.19;5034693;28;20036;-78
2023/05/15 06:27:31;;;;;;;31.58;17.30;;;;;;;13.76;79.10;95155.88;5032836;28;20422;-78
2023/05/15 06:29:56;;;;;;;36.70;19.50;;;;;;;13.24;79.38;95034.53;5036056;28;20051;-78
2023/05/15 06:32:21;;;;;;;32.95;19.77;;;;;;;13.92;78.49;95137.75;5034071;28;20429;-78
2023/05/15 06:34:47;;;;;;;34.72;17.92;;;;;;;13.95;78.64;95157.72;5036786;28;20086;-78
2023/05/15 06:37:12;;;;;;;33.25;19.20;;;;;;;13.80;78.57;95135.56;5036845;28;20041;-77
2023/05/15 06:39:38;;;;;;;31.25;19.02;;;;;;;13.91;78.29;95125.50;5032301;28;20037;-78
2023/05/15 06:42:04;;;;;;;32.50;18.58;;;;;;;14.29;78.11;95169.56;5032503;28;20043;-78
2023/05/15 06:44:30;;;;;;;33.28;18.63;;;;;;;14.33;77.88;95159.13;5033482;28;20061;-78
2023/05/15 06:46:55;;;;;;;30.05;18.73;;;;;;;14.47;78.18;95183.94;5037477;28;20044;-78
2023/05/15 06:49:21;;;;;;;37.17;18.73;;;;;;;14.55;77.83;95182.44;5032055;28;20025;-79
2023/05/15 06:51:47;;;;;;;30.83;17.85;;;;;;;14.49;77.94;95175.63;5035864;28;20043;-78
2023/05/15 06:54:13;;;;;;;30.08;18.88;;;;;;;14.64;77.03;95184.13;5033037;28;20033;-80
2023/05/15 06:56:38;;;;;;;30.17;14.98;;;;;;;14.58;76.45;95155.16;5010977;28;20126;-81
2023/05/15 06:59:04;;;;;;;27.10;15.52;;;;;;;14.86;76.17;95179.94;5037130;28;20058;-80
2023/05/15 07:01:30;;;;;;;39.28;18.02;;;;;;;14.94;76.72;95189.91;5035146;28;20430;-81
2023/05/15 07:03:56;;;;;;;28.70;15.30;;;;;;;14.99;76.88;95187.91;5039606;28;20045;-80
2023/05/15 07:06:21;;;;;;;26.27;16.23;;;;;;;14.73;75.97;95124.66;5034040;28;20068;-77
2023/05/15 07:08:47;;;;;;;26.10;15.65;;;;;;;15.17;76.27;95164.81;5032593;28;20056;-79
2023/05/15 07:11:12;;;;;;;31.77;17.20;;;;;;;14.89;75.35;95123.25;5033911;28;20028;-78
2023/05/15 07:13:39;;;;;;;26.33;15.73;;;;;;;15.32;75.48;95161.00;5033361;28;20126;-79
2023/05/15 07:16:05;;;;;;;24.00;15.43;;;;;;;15.18;75.08;95125.53;5030565;28;20041;-78
2023/05/15 07:18:30;;;;;;;29.42;17.02;;;;;;;15.34;75.31;95162.25;5033408;28;20032;-78
2023/05/15 07:20:55;;;;;;;35.03;17.10;;;;;;;15.43;75.24;95155.09;5034543;28;20047;-79
2023/05/15 07:23:21;;;;;;;26.55;14.88;;;;;;;15.12;73.70;95132.06;5032276;28;20110;-78
2023/05/15 07:25:47;;;;;;;23.42;13.93;;;;;;;15.46;73.77;95153.72;5032193;28;20033;-77
2023/05/15 07:28:12;;;;;;;23.88;13.55;;;;;;;15.43;72.69;95179.16;5028198;28;20044;-79
2023/05/15 07:30:38;;;;;;;25.52;15.05;;;;;;;15.54;72.97;95169.06;5035244;28;20406;-78
2023/05/15 07:33:03;;;;;;;22.23;15.18;;;;;;;15.60;73.67;95167.81;5032986;28;20089;-78
2023/05/15 07:35:29;;;;;;;29.45;14.63;;;;;;;15.71;73.49;95179.06;5031538;28;20037;-79
2023/05/15 07:37:54;;;;;;;21.70;15.07;;;;;;;15.74;73.70;95183.78;5036384;28;20669;-79
2023/05/15 07:40:19;;;;;;;31.98;16.13;;;;;;;15.86;73.55;95172.56;5038175;28;20534;-79
2023/05/15 07:42:45;;;;;;;27.88;15.23;;;;;;;15.80;72.86;95178.00;5031423;28;20024;-79
2023/05/15 07:45:11;;;;;;;28.10;15.95;;;;;;;15.83;72.52;95171.28;5028526;28;20033;-78
2023/05/15 07:47:37;;;;;;;24.10;16.25;;;;;;;15.76;72.08;95144.19;5050541;28;20546;-78
2023/05/15 07:50:02;;;;;;;30.65;17.10;;;;;;;15.90;72.32;95162.81;5030025;28;20029;-78
2023/05/15 07:52:28;;;;;;;27.42;17.13;;;;;;;16.01;72.80;95162.25;5023941;28;20507;-80
2023/05/15 07:54:55;;;;;;;25.25;17.23;;;;;;;15.88;73.33;95138.25;5028388;28;20024;-81
2023/05/15 07:57:20;;;;;;;32.63;18.33;;;;;;;15.50;72.53;95143.97;5034516;28;20176;-80
2023/05/15 07:59:45;;;;;;;28.95;17.08;;;;;;;15.55;71.90;95149.25;5013128;28;20248;-79
2023/05/15 08:02:11;;;;;;;30.17;18.95;;;;;;;15.86;72.23;95194.72;5025541;28;20036;-79
2023/05/15 08:04:36;;;;;;;35.70;19.45;;;;;;;15.32;71.79;95115.59;5029655;28;20127;-79
2023/05/15 08:07:02;;;;;;;28.25;17.50;;;;;;;15.81;72.10;95197.53;5027342;28;20333;-79
2023/05/15 08:09:27;;;;;;;27.00;18.85;;;;;;;15.51;72.14;95155.47;5028185;28;20883;-78
2023/05/15 08:12:13;;;;;;;32.92;20.13;;;;;;;15.73;72.54;95183.00;5037103;28;20098;-80
2023/05/15 08:14:38;;;;;;;32.45;18.85;;;;;;;15.46;73.78;95193.81;5027311;28;20033;-80
2023/05/15 08:17:05;;;;;;;31.92;19.83;;;;;;;15.02;73.60;95160.63;5009176;28;20047;-80
2023/05/15 08:19:31;;;;;;;34.83;19.85;;;;;;;15.29;74.41;95183.75;5028028;28;20037;-80
2023/05/15 08:21:56;;;;;;;33.67;18.55;;;;;;;15.36;73.12;95186.00;5031924;28;20413;-79
2023/05/15 08:24:22;;;;;;;32.92;20.33;;;;;;;15.23;75.05;95184.97;5030428;28;20100;-79
2023/05/15 08:26:47;;;;;;;35.38;21.05;;;;;;;15.23;73.96;95144.13;5031986;28;20033;-81
2023/05/15 08:29:13;;;;;;;29.08;19.60;;;;;;;15.36;73.87;95159.28;5031152;28;20593;-79
2023/05/15 08:31:38;;;;;;;30.52;19.35;;;;;;;15.63;74.97;95193.97;5030368;28;20040;-80
2023/05/15 08:34:04;;;;;;;34.28;19.88;;;;;;;15.44;73.56;95134.50;5030082;28;20108;-79
2023/05/15 08:36:29;;;;;;;35.72;20.63;;;;;;;15.62;73.89;95183.56;5029313;28;20123;-80
2023/05/15 08:38:54;;;;;;;35.17;21.55;;;;;;;15.75;73.44;95177.34;5032536;28;20044;-80
2023/05/15 08:41:50;;;;;;;38.40;24.17;;;;;;;15.81;73.41;95182.25;5031170;28;20410;-79
2023/05/15 08:44:16;;;;;;;36.15;22.23;;;;;;;15.89;74.31;95178.06;5023601;28;20055;-80
2023/05/15 08:46:42;;;;;;;39.58;23.67;;;;;;;15.53;72.83;95075.78;5035626;28;20035;-81
2023/05/15 08:49:19;;;;;;;34.00;21.35;;;;;;;16.18;73.04;95174.88;5025197;28;20055;-83
2023/05/15 08:51:45;;;;;;;31.17;20.05;;;;;;;15.92;72.60;95096.44;5030242;28;20036;-80
2023/05/15 08:54:10;;;;;;;33.83;19.17;;;;;;;15.31;73.53;95036.53;5029702;28;20032;-80
2023/05/15 08:56:36;;;;;;;32.33;17.67;;;;;;;16.27;73.43;95143.59;5032732;28;20025;-81
2023/05/15 08:59:03;;;;;;;36.70;16.92;;;;;;;16.23;71.91;95121.25;5034519;28;20489;-80
2023/05/15 09:01:29;;;;;;;26.33;16.48;;;;;;;16.36;71.46;95141.75;5029531;28;20049;-80
2023/05/15 09:03:54;;;;;;;26.98;16.55;;;;;;;15.80;70.70;95089.75;5039242;28;20082;-80
2023/05/15 09:06:21;;;;;;;30.95;15.65;;;;;;;16.11;71.26;95153.94;5032382;28;20045;-81
2023/05/15 09:08:48;;;;;;;26.15;16.13;;;;;;;16.14;70.48;95147.97;5034573;28;20036;-81
2023/05/15 09:11:15;;;;;;;27.00;16.20;;;;;;;15.91;70.49;95118.94;5034402;28;20495;-81
2023/05/15 09:13:40;;;;;;;22.45;16.00;;;;;;;15.37;72.60;95084.19;5032275;28;20175;-78
2023/05/15 09:16:06;;;;;;;32.90;18.48;;;;;;;15.79;73.70;95170.31;5034531;28;20131;-81
2023/05/15 09:18:32;;;;;;;35.38;19.48;;;;;;;15.29;72.48;95097.47;5062590;28;20516;-80
2023/05/15 09:21:25;;;;;;;34.53;19.30;;;;;;;16.06;72.43;95151.41;5035297;28;20094;-80
2023/05/15 09:23:52;;;;;;;29.25;18.13;;;;;;;15.63;71.08;95073.66;5036879;28;20490;-80
2023/05/15 09:26:17;;;;;;;25.35;18.52;;;;;;;15.96;70.99;95111.53;5039077;28;20036;-80
2023/05/15 09:28:45;;;;;;;32.72;19.20;;;;;;;16.07;71.58;95123.56;5038153;28;20033;-80
2023/05/15 09:31:10;;;;;;;33.40;17.70;;;;;;;16.35;70.82;95123.31;5035701;28;20095;-80
2023/05/15 09:33:37;;;;;;;35.00;19.58;;;;;;;15.71;71.38;94998.06;5034151;28;20499;-86
2023/05/15 09:36:05;;;;;;;36.63;18.85;;;;;;;16.65;71.86;95127.84;5036088;28;20094;-79
2023/05/15 09:38:38;;;;;;;29.88;17.77;;;;;;;15.97;69.75;94975.94;5034661;28;20326;-81
2023/05/15 09:41:05;;;;;;;28.58;17.75;;;;;;;16.34;70.49;95010.13;5042437;28;20037;-80
2023/05/15 09:43:37;;;;;;;31.58;17.60;;;;;;;16.83;68.21;95078.56;5028837;28;20035;-79
2023/05/15 09:46:05;;;;;;;27.00;17.75;;;;;;;17.21;67.29;95065.31;5030972;28;20040;-78
2023/05/15 09:48:31;;;;;;;30.63;15.93;;;;;;;17.24;67.39;95027.13;5035344;28;20093;-80
2023/05/15 09:50:56;;;;;;;28.05;16.77;;;;;;;17.33;67.28;95008.34;5038482;28;20044;-80
2023/05/15 09:53:23;;;;;;;24.45;14.88;;;;;;;17.97;66.67;95094.94;5039686;28;20036;-79
2023/05/15 09:55:51;;;;;;;28.30;15.63;;;;;;;17.93;64.50;95077.13;5042639;28;20043;-82
2023/05/15 09:58:25;;;;;;;22.35;14.80;;;;;;;17.55;64.03;94992.03;5044184;28;20032;-83
2023/05/15 10:00:50;;;;;;;26.60;13.80;;;;;;;18.09;64.75;95067.41;5035771;28;20149;-83
2023/05/15 10:03:21;;;;;;;25.17;13.13;;;;;;;17.74;63.71;95035.38;5038399;28;20100;-85
2023/05/15 10:05:46;;;;;;;20.30;13.18;;;;;;;17.82;64.23;95035.66;5040548;28;20218;-84
2023/05/15 10:08:13;;;;;;;26.88;13.30;;;;;;;17.90;62.72;95097.34;5040370;28;20025;-84
2023/05/15 10:10:42;;;;;;;24.50;14.32;;;;;;;16.56;64.16;94910.94;5036510;28;20025;-84
2023/05/15 10:13:08;;;;;;;23.60;14.43;;;;;;;17.81;62.75;95099.25;5034671;28;20032;-84
2023/05/15 10:15:34;;;;;;;23.25;13.20;;;;;;;17.58;63.96;95052.28;5031714;28;20040;-79
2023/05/15 10:18:01;;;;;;;21.02;13.88;;;;;;;17.54;63.79;95064.78;5039599;28;20065;-80
2023/05/15 10:20:27;;;;;;;22.55;13.00;;;;;;;16.99;63.69;94974.41;5015672;28;20334;-80
2023/05/15 10:22:54;;;;;;;24.63;13.45;;;;;;;17.57;63.65;95072.16;5037660;28;20056;-79
2023/05/15 10:25:53;;;;;;;25.20;14.70;;;;;;;17.71;63.62;95113.00;5024727;28;20024;-79
2023/05/15 10:28:19;;;;;;;25.58;13.25;;;;;;;17.65;63.01;95098.19;5023713;28;20040;-80
2023/05/15 10:30:46;;;;;;;23.60;13.27;;;;;;;17.45;63.79;95088.91;5015379;28;20068;-80
2023/05/15 10:33:12;;;;;;;19.15;13.02;;;;;;;17.39;63.86;95070.66;5029543;28;20597;-79
2023/05/15 10:35:42;;;;;;;29.13;13.52;;;;;;;17.52;64.12;95105.31;5028425;28;20025;-81
2023/05/15 10:38:08;;;;;;;21.95;13.50;;;;;;;17.64;63.90;95131.47;5030585;28;20507;-80
2023/05/15 10:40:38;;;;;;;28.83;14.15;;;;;;;17.38;63.47;95109.28;5025521;28;20511;-80
2023/05/15 10:43:05;;;;;;;24.75;13.73;;;;;;;17.47;63.54;95131.50;5022599;28;20499;-80
2023/05/15 10:45:32;;;;;;;23.27;13.13;;;;;;;17.33;62.50;95102.97;5013009;28;20290;-80
2023/05/15 10:47:58;;;;;;;22.63;13.77;;;;;;;17.28;62.26;95096.97;5034555;28;20422;-80
2023/05/15 10:50:24;;;;;;;21.80;13.75;;;;;;;17.19;62.45;95072.06;5031345;28;20041;-80
2023/05/15 10:52:50;;;;;;;22.73;14.70;;;;;;;17.29;63.17;95096.66;5032118;28;21498;-80
2023/05/15 10:55:16;;;;;;;23.95;14.07;;;;;;;17.25;63.05;95093.03;5035959;28;20060;-80
2023/05/15 10:57:45;;;;;;;27.45;14.55;;;;;;;17.27;63.31;95100.75;5036621;28;20499;-79
2023/05/15 11:00:25;;;;;;;18.73;12.60;;;;;;;17.45;63.04;95131.03;5038099;28;20402;-80
2023/05/15 11:02:55;;;;;;;25.73;13.35;;;;;;;17.10;63.74;95082.00;5035571;28;20071;-80
2023/05/15 11:05:21;;;;;;;34.85;15.60;;;;;;;16.88;64.28;95056.97;5033505;28;20557;-81
2023/05/15 11:08:14;;;;;;;28.25;16.30;;;;;;;17.24;64.48;95125.53;5030997;28;20036;-80
2023/05/15 11:10:40;;;;;;;39.35;19.65;;;;;;;16.86;64.42;95079.84;5027649;28;20106;-80
2023/05/15 11:13:05;;;;;;;32.53;19.77;;;;;;;16.90;64.99;95104.88;5020666;28;20029;-81
2023/05/15 11:15:57;;;;;;;41.63;21.55;;;;;;;16.93;65.13;95112.28;5024151;28;20490;-84
2023/05/15 11:18:24;;;;;;;42.38;22.23;;;;;;;16.61;65.72;95043.91;5035029;28;20095;-80
2023/05/15 11:20:50;;;;;;;35.75;20.00;;;;;;;16.84;65.97;95085.50;5031385;28;20357;-81
2023/05/15 11:23:20;;;;;;;31.35;18.08;;;;;;;16.94;65.97;95101.25;5026272;28;20563;-78